Princesa Das Ondas — CUGX8 — position and weather

sailwx.info

Track history (hours):
 
Tides and Currents Weather Stations Pressure Air Temp Water Temp Dewpoint Dewpoint Depression Visibility Wind Speed Wind Dir Waves Ship Positions

Princesa Das Ondas

Last reported at 2018-Jun-25 17:29 UTC. Time now 2018-Jun-25 17:35 UTC.
Position N 39°12' W 009°24'.

Length 18 m.

Type: Fishing. MMSI: 263410460.

Date/timePositionNaut miles runAvg speedWind from/ knotsBaromVisibWave heightAir tempDewpointWater temp
2018-Jun-25 17:29N 39°12' W 009°24'0 0.2
2018-Jun-25 16:47N 39°12' W 009°24'1 4.4
2018-Jun-25 16:30N 39°14' W 009°24'1 0.9
2018-Jun-25 14:54N 39°15' W 009°23'4 5.2
2018-Jun-25 14:04N 39°10' W 009°24'1 9.9
2018-Jun-25 14:00N 39°11' W 009°24'  
2018-Jun-22 22:37N 39°17' W 009°26'3 9.6
2018-Jun-22 22:19N 39°14' W 009°27'3 9.4
2018-Jun-22 22:00N 39°12' W 009°29'1 2.1
2018-Jun-22 21:31N 39°11' W 009°30'0 0.1
2018-Jun-22 21:00N 39°11' W 009°30'0 0.2
2018-Jun-22 20:30N 39°10' W 009°30'1 2.5
2018-Jun-22 20:01N 39°09' W 009°29'6 2.6
2018-Jun-22 17:37N 39°15' W 009°25'1 9.0
2018-Jun-22 17:29N 39°14' W 009°25'2 3.0
2018-Jun-22 16:55N 39°12' W 009°26'0 0.3
2018-Jun-22 15:52N 39°12' W 009°26'0 0.8
2018-Jun-22 15:27N 39°13' W 009°26'2 5.1
2018-Jun-22 15:00N 39°11' W 009°24'2 5.0
2018-Jun-22 14:30N 39°12' W 009°26'3 3.2
2018-Jun-22 13:42N 39°15' W 009°26'2 0.2
2018-Jun-21 23:28N 39°17' W 009°28'4 9.3
2018-Jun-21 23:01N 39°14' W 009°32'1 2.8
2018-Jun-21 22:30N 39°13' W 009°33'4 7.9
2018-Jun-21 22:01N 39°10' W 009°29'3 6.4
2018-Jun-21 21:30N 39°07' W 009°29'0 0.1
2018-Jun-21 21:00N 39°07' W 009°29'0 0.9
2018-Jun-21 20:30N 39°07' W 009°28'2 3.7
2018-Jun-21 20:01N 39°08' W 009°27'0 0.5
2018-Jun-21 19:31N 39°09' W 009°27'0 0.7
2018-Jun-21 19:00N 39°09' W 009°27'5 6.1
2018-Jun-21 18:11N 39°12' W 009°22'0 0.0
2018-Jun-20 17:50N 39°12' W 009°22'0 0.2
2018-Jun-20 16:15N 39°12' W 009°23'2 7.9
2018-Jun-20 15:56N 39°09' W 009°24'5 0.3
2018-Jun-19 22:32N 39°14' W 009°25'1 9.1
2018-Jun-19 22:28N 39°13' W 009°25'4 9.1
2018-Jun-19 22:00N 39°09' W 009°27'4 7.5
2018-Jun-19 21:30N 39°06' W 009°28'0 0.4
2018-Jun-19 21:00N 39°06' W 009°28'0 0.3
2018-Jun-19 20:30N 39°06' W 009°28'0 0.5
2018-Jun-19 20:00N 39°06' W 009°28'1 1.0
2018-Jun-19 19:30N 39°07' W 009°29'0 0.5
2018-Jun-19 19:00N 39°07' W 009°29'0 0.4
2018-Jun-19 18:30N 39°07' W 009°29'0 0.5
2018-Jun-19 18:00N 39°07' W 009°29'4 8.2
2018-Jun-19 17:30N 39°03' W 009°29'4 8.3
2018-Jun-19 17:00N 38°59' W 009°28'2 3.4
2018-Jun-19 16:30N 38°58' W 009°27'3 6.6
2018-Jun-19 16:00N 38°54' W 009°27'4 7.8
2018-Jun-19 15:30N 38°58' W 009°27'5 9.6
2018-Jun-19 15:00N 39°03' W 009°26'5 9.3
2018-Jun-19 14:30N 39°08' W 009°25'4 0.2
2018-Jun-18 13:56N 39°11' W 009°23'  
2018-Jun-15 20:46N 39°18' W 009°23'8 6.6
2018-Jun-15 19:31N 39°10' W 009°24'0 0.2
2018-Jun-15 19:29N 39°10' W 009°24'0 0.0
2018-Jun-15 18:49N 39°10' W 009°24'0 0.0
2018-Jun-15 18:24N 39°10' W 009°24'0 0.4
2018-Jun-15 18:00N 39°10' W 009°24'  
Track history (hours):
 
Tides and Currents Weather Stations Pressure Air Temp Water Temp Dewpoint Dewpoint Depression Visibility Wind Speed Wind Dir Waves Ship Positions

Princesa Das Ondas

Last reported at 2018-Jun-25 17:29 UTC. Time now 2018-Jun-25 17:35 UTC.
Position N 39°12' W 009°24'.

Length 18 m.

Type: Fishing. MMSI: 263410460.

Date/timePositionNaut miles runAvg speedWind from/ knotsBaromVisibWave heightAir tempDewpointWater temp
2018-Jun-25 17:29N 39°12' W 009°24'0 0.2
2018-Jun-25 16:47N 39°12' W 009°24'1 4.4
2018-Jun-25 16:30N 39°14' W 009°24'1 0.9
2018-Jun-25 14:54N 39°15' W 009°23'4 5.2
2018-Jun-25 14:04N 39°10' W 009°24'1 9.9
2018-Jun-25 14:00N 39°11' W 009°24'  
2018-Jun-22 22:37N 39°17' W 009°26'3 9.6
2018-Jun-22 22:19N 39°14' W 009°27'3 9.4
2018-Jun-22 22:00N 39°12' W 009°29'1 2.1
2018-Jun-22 21:31N 39°11' W 009°30'0 0.1
2018-Jun-22 21:00N 39°11' W 009°30'0 0.2
2018-Jun-22 20:30N 39°10' W 009°30'1 2.5
2018-Jun-22 20:01N 39°09' W 009°29'6 2.6
2018-Jun-22 17:37N 39°15' W 009°25'1 9.0
2018-Jun-22 17:29N 39°14' W 009°25'2 3.0
2018-Jun-22 16:55N 39°12' W 009°26'0 0.3
2018-Jun-22 15:52N 39°12' W 009°26'0 0.8
2018-Jun-22 15:27N 39°13' W 009°26'2 5.1
2018-Jun-22 15:00N 39°11' W 009°24'2 5.0
2018-Jun-22 14:30N 39°12' W 009°26'3 3.2
2018-Jun-22 13:42N 39°15' W 009°26'2 0.2
2018-Jun-21 23:28N 39°17' W 009°28'4 9.3
2018-Jun-21 23:01N 39°14' W 009°32'1 2.8
2018-Jun-21 22:30N 39°13' W 009°33'4 7.9
2018-Jun-21 22:01N 39°10' W 009°29'3 6.4
2018-Jun-21 21:30N 39°07' W 009°29'0 0.1
2018-Jun-21 21:00N 39°07' W 009°29'0 0.9
2018-Jun-21 20:30N 39°07' W 009°28'2 3.7
2018-Jun-21 20:01N 39°08' W 009°27'0 0.5
2018-Jun-21 19:31N 39°09' W 009°27'0 0.7
2018-Jun-21 19:00N 39°09' W 009°27'5 6.1
2018-Jun-21 18:11N 39°12' W 009°22'0 0.0
2018-Jun-20 17:50N 39°12' W 009°22'0 0.2
2018-Jun-20 16:15N 39°12' W 009°23'2 7.9
2018-Jun-20 15:56N 39°09' W 009°24'5 0.3
2018-Jun-19 22:32N 39°14' W 009°25'1 9.1
2018-Jun-19 22:28N 39°13' W 009°25'4 9.1
2018-Jun-19 22:00N 39°09' W 009°27'4 7.5
2018-Jun-19 21:30N 39°06' W 009°28'0 0.4
2018-Jun-19 21:00N 39°06' W 009°28'0 0.3
2018-Jun-19 20:30N 39°06' W 009°28'0 0.5
2018-Jun-19 20:00N 39°06' W 009°28'1 1.0
2018-Jun-19 19:30N 39°07' W 009°29'0 0.5
2018-Jun-19 19:00N 39°07' W 009°29'0 0.4
2018-Jun-19 18:30N 39°07' W 009°29'0 0.5
2018-Jun-19 18:00N 39°07' W 009°29'4 8.2
2018-Jun-19 17:30N 39°03' W 009°29'4 8.3
2018-Jun-19 17:00N 38°59' W 009°28'2 3.4
2018-Jun-19 16:30N 38°58' W 009°27'3 6.6
2018-Jun-19 16:00N 38°54' W 009°27'4 7.8
2018-Jun-19 15:30N 38°58' W 009°27'5 9.6
2018-Jun-19 15:00N 39°03' W 009°26'5 9.3
2018-Jun-19 14:30N 39°08' W 009°25'4 0.2
2018-Jun-18 13:56N 39°11' W 009°23'  
2018-Jun-15 20:46N 39°18' W 009°23'8 6.6
2018-Jun-15 19:31N 39°10' W 009°24'0 0.2
2018-Jun-15 19:29N 39°10' W 009°24'0 0.0
2018-Jun-15 18:49N 39°10' W 009°24'0 0.0
2018-Jun-15 18:24N 39°10' W 009°24'0 0.4
2018-Jun-15 18:00N 39°10' W 009°24'  

Dump ship's entire track history